WSSLWMKD

Guest
Details From WSSL - Seletar
To WMKD - Kuantan Aero
Flight Number -
Tags generated
Created
Modified
Stats Distance 148 nm / 275 km
Max Altitude 8,900 ft / 2,713 m
Waypoints 3
Social Downloads 0
Likes 0
Share VATSIM

Download

Looking for another format? Having issues loading an existing format? Contact us
Advertisement - Login to hide

Notes

Basic altitude profile: - Ascent Rate: 2500ft/min - Ascent Speed: 250kts - Cruise Altitude: 35000ft - Cruise Speed: 420kts - Descent Rate: 1500ft/min - Descent Speed: 250kts

Route

WSSL PADLI WMKD

ID Type Via Altitude Latitude Longitude Leg Dist Tot Dist Heading (true) Name
O WSSL APT - 0 ft / 0 m 1.41643˚ 103.86730˚ - 0 nm - Seletar
PADLI FIX - 8,900 ft / 2,713 m 3.15500˚ 103.52583˚ 106 nm 106 nm 349° / 349° -
O WMKD APT - 0 ft / 0 m 3.77566˚ 103.20906˚ 41 nm 148 nm 333° / 333° Kuantan Aero

Altitude Profile

Advertisement - Login to hide

WSSL

Details ICAO WSSL (XSP)
Name Seletar
Region Singapore
Timezone Asia/Singapore (UTC+8.0)
Stats Elevation 36 ft / 11 m (AMSL)
Location 1.416427° 103.867299°
Runways 1
Magnetic Variation 0.218° E

METAR

WSSL 131100Z 00000KT 9999 -RA FEW016 BKN190 25/24 Q1010 RETSRA

Decode

TAF

TAF AMD WSSL 130700Z 1307/1412 34008KT 9999 FEW018CB SCT020 TEMPO 1307/1311 3000 TSRA FEW012CB BKN015 TEMPO 1406/1409 3000 TSRA FEW012CB BKN015

Decode

Departure Runways

ID Width Length Bearing (true) Bearing (mag) Surface Threshold Offset Overrun Length
03 151 ft / 46 m 5,243 ft / 1,598 m 33.15° 32.93° Asphalt 0 ft / 0 m 197 ft / 60 m
21 151 ft / 46 m 5,243 ft / 1,598 m 213.15° 212.93° Asphalt 0 ft / 0 m 197 ft / 60 m

WMKD

Details ICAO WMKD (KUA)
Name Kuantan Aero
Region Malaysia (Peninsular Malaysia)
Timezone Asia/Kuala_Lumpur (UTC+8.0)
Stats Elevation 58 ft / 18 m (AMSL)
Location 3.775660° 103.209057°
Runways 1
Magnetic Variation 0.059° E

METAR

WMKD 131100Z VRB04KT 9999 FEW016CB SCT160 BKN280 28/25 Q1010 NOSIG

Decode

TAF

Not found

Destination Runways

ID Width Length Bearing (true) Bearing (mag) Surface Threshold Offset Overrun Length
18 150 ft / 46 m 9,253 ft / 2,820 m 183.14° 183.08° Asphalt 0 ft / 0 m 1,062 ft / 324 m
36 150 ft / 46 m 9,253 ft / 2,820 m 3.14° 3.08° Asphalt 0 ft / 0 m 867 ft / 264 m

Approach Navaids

Runway Type Ident Frequency Range Bearing (true) Bearing (mag) Slope Elevation
36 Localiser IKN 109.50 MHz 18 nm / 33 km 359.94° 359.88° - 58 ft / 18 m (AMSL)
36 Glidescope IKN 109.50 MHz 10 nm / 19 km 3.14° 3.08° 3.00° 54 ft / 16 m (AMSL)
36 DME IKN 109.50 MHz 18 nm / 33 km - - - 58 ft / 18 m (AMSL)